Time;durP1;ratioP1;P1;durP2;ratioP2;P2;SDS_P1;SDS_P2;PMS_P1;PMS_P2;Temp;Humidity;BMP_temperature;BMP_pressure;BME280_temperature;BME280_humidity;BME280_pressure;Samples;Min_cycle;Max_cycle;Signal;HPM_P1;HPM_P2
2024/03/28 00:02:05;;;;;;;21.70;15.20;;;9.30;99.90;;;;;;5006677;28;21485;-68
2024/03/28 00:04:31;;;;;;;21.63;14.60;;;9.30;99.90;;;;;;5009152;28;20191;-70
2024/03/28 00:06:57;;;;;;;18.58;14.13;;;9.30;99.90;;;;;;5010240;28;20192;-69
2024/03/28 00:09:23;;;;;;;18.70;13.40;;;9.20;99.90;;;;;;5004619;28;20192;-69
2024/03/28 00:11:49;;;;;;;20.33;14.15;;;9.30;99.90;;;;;;5006281;28;20562;-69
2024/03/28 00:14:15;;;;;;;19.30;14.15;;;9.30;99.90;;;;;;5007297;28;20200;-68
2024/03/28 00:16:41;;;;;;;20.60;14.23;;;9.20;99.90;;;;;;5017784;28;20211;-66
2024/03/28 00:19:06;;;;;;;27.85;17.92;;;9.20;99.90;;;;;;5008295;28;20192;-68
2024/03/28 00:21:32;;;;;;;21.88;16.15;;;9.20;99.90;;;;;;5007306;28;20184;-70
2024/03/28 00:23:58;;;;;;;23.88;15.95;;;9.20;99.90;;;;;;5011353;28;20313;-66
2024/03/28 00:26:24;;;;;;;24.52;17.52;;;9.20;99.90;;;;;;5010630;28;20743;-67
2024/03/28 00:28:49;;;;;;;23.20;17.15;;;9.20;99.90;;;;;;5010280;28;20720;-67
2024/03/28 00:31:15;;;;;;;26.98;19.17;;;9.20;99.90;;;;;;5007645;28;20195;-68
2024/03/28 00:33:41;;;;;;;27.10;18.73;;;9.10;99.90;;;;;;5006956;28;20184;-68
2024/03/28 00:36:07;;;;;;;28.50;18.77;;;9.10;99.90;;;;;;5007291;28;20597;-67
2024/03/28 00:38:32;;;;;;;26.73;18.65;;;9.10;99.90;;;;;;5006673;28;20188;-68
2024/03/28 00:40:58;;;;;;;25.02;18.55;;;9.10;99.90;;;;;;5007792;28;20185;-69
2024/03/28 00:43:24;;;;;;;26.58;18.10;;;9.10;99.90;;;;;;5008077;28;20575;-68
2024/03/28 00:45:50;;;;;;;27.52;19.20;;;9.10;99.90;;;;;;5007353;28;20195;-67
2024/03/28 00:48:18;;;;;;;25.85;18.58;;;9.10;99.90;;;;;;5007594;28;20204;-68
2024/03/28 00:50:57;;;;;;;25.52;17.10;;;9.10;99.90;;;;;;5008197;28;20651;-69
2024/03/28 00:53:23;;;;;;;24.50;18.08;;;9.10;99.90;;;;;;5009970;28;20511;-68
2024/03/28 00:55:49;;;;;;;21.98;16.85;;;9.10;99.90;;;;;;5005596;28;20219;-68
2024/03/28 00:58:15;;;;;;;25.65;17.60;;;9.10;99.90;;;;;;5008360;28;20743;-66
2024/03/28 01:00:45;;;;;;;28.27;17.70;;;9.10;99.90;;;;;;5005418;28;20271;-67
2024/03/28 01:03:11;;;;;;;26.40;16.73;;;9.10;99.90;;;;;;5023473;28;20196;-68
2024/03/28 01:05:37;;;;;;;27.65;17.92;;;9.10;99.90;;;;;;5007264;28;20184;-66
2024/03/28 01:08:04;;;;;;;24.90;17.50;;;9.00;99.90;;;;;;5004894;28;20195;-68
2024/03/28 01:10:29;;;;;;;27.35;17.73;;;9.00;99.90;;;;;;5008585;28;20199;-69
2024/03/28 01:12:55;;;;;;;25.27;18.25;;;9.00;99.90;;;;;;5021032;28;20200;-69
2024/03/28 01:15:21;;;;;;;25.42;18.23;;;9.00;99.90;;;;;;5006164;28;20223;-70
2024/03/28 01:17:47;;;;;;;27.23;17.85;;;9.00;99.90;;;;;;5017813;28;20200;-69
2024/03/28 01:20:13;;;;;;;27.65;18.40;;;9.00;99.90;;;;;;5006561;28;20559;-67
2024/03/28 01:22:39;;;;;;;28.58;19.75;;;9.00;99.90;;;;;;5011203;28;20184;-68
2024/03/28 01:25:06;;;;;;;28.77;20.17;;;9.00;99.90;;;;;;5005249;28;20251;-68
2024/03/28 01:27:37;;;;;;;30.33;21.58;;;9.00;99.90;;;;;;5005965;28;20184;-67
2024/03/28 01:30:04;;;;;;;29.05;20.50;;;9.00;99.90;;;;;;5005094;28;20198;-69
2024/03/28 01:32:30;;;;;;;30.27;21.20;;;9.00;99.90;;;;;;5008995;28;20584;-67
2024/03/28 01:34:56;;;;;;;30.58;20.75;;;8.90;99.90;;;;;;5008653;28;20271;-67
2024/03/28 01:37:21;;;;;;;28.88;20.75;;;9.00;99.90;;;;;;5007756;28;20287;-69
2024/03/28 01:39:47;;;;;;;27.33;19.95;;;8.90;99.90;;;;;;5007167;28;20192;-67
2024/03/28 01:42:14;;;;;;;28.55;20.00;;;8.90;99.90;;;;;;5007379;28;20196;-68
2024/03/28 01:44:40;;;;;;;28.77;20.08;;;8.90;99.90;;;;;;5005934;28;20211;-68
2024/03/28 01:47:06;;;;;;;29.25;20.08;;;9.00;99.90;;;;;;5005850;28;20217;-69
2024/03/28 01:49:33;;;;;;;30.25;19.42;;;9.00;99.90;;;;;;5006601;28;20411;-69
2024/03/28 01:52:00;;;;;;;28.30;19.40;;;8.90;99.90;;;;;;5005064;28;20288;-69
2024/03/28 01:54:26;;;;;;;29.08;20.17;;;8.90;99.90;;;;;;5008227;28;20246;-68
2024/03/28 01:56:54;;;;;;;29.83;20.10;;;8.90;99.90;;;;;;5008119;28;20551;-67
2024/03/28 01:59:20;;;;;;;29.83;20.38;;;8.90;99.90;;;;;;5010314;28;20184;-67
2024/03/28 02:01:47;;;;;;;32.45;22.60;;;8.90;99.90;;;;;;5008153;28;20188;-68
2024/03/28 02:04:13;;;;;;;35.30;25.88;;;8.90;99.90;;;;;;5009028;28;20591;-68
2024/03/28 02:06:39;;;;;;;38.47;25.60;;;8.90;99.90;;;;;;5010277;28;20703;-69
2024/03/28 02:09:07;;;;;;;37.55;26.45;;;8.90;99.90;;;;;;5009718;28;20282;-68
2024/03/28 02:11:34;;;;;;;42.13;25.88;;;8.90;99.90;;;;;;5021093;28;20188;-67
2024/03/28 02:14:00;;;;;;;35.10;23.63;;;8.80;99.90;;;;;;5008544;28;20188;-67
2024/03/28 02:16:26;;;;;;;35.47;23.83;;;8.90;99.90;;;;;;5011009;28;21103;-70
2024/03/28 02:18:55;;;;;;;33.30;24.13;;;8.80;99.90;;;;;;5008026;28;20435;-69
2024/03/28 02:21:21;;;;;;;30.27;22.02;;;8.90;99.90;;;;;;5008856;28;20195;-68
2024/03/28 02:23:49;;;;;;;33.20;22.40;;;8.90;99.90;;;;;;5011505;28;20196;-69
2024/03/28 02:26:15;;;;;;;33.90;21.80;;;8.90;99.90;;;;;;5012492;28;20204;-66
2024/03/28 02:28:41;;;;;;;29.58;20.67;;;8.90;99.90;;;;;;5008283;28;20223;-67
2024/03/28 02:31:07;;;;;;;31.73;21.20;;;8.80;99.90;;;;;;5011621;28;20227;-68
2024/03/28 02:33:35;;;;;;;29.55;21.55;;;8.90;99.90;;;;;;5008634;28;20227;-70
2024/03/28 02:36:00;;;;;;;30.45;21.60;;;8.80;99.90;;;;;;5008534;28;20232;-66
2024/03/28 02:38:26;;;;;;;29.05;20.80;;;8.80;99.90;;;;;;5008414;28;20229;-66
2024/03/28 02:40:52;;;;;;;32.95;21.10;;;8.80;99.90;;;;;;5009267;28;20197;-66
2024/03/28 02:43:17;;;;;;;31.63;21.77;;;8.80;99.90;;;;;;5011392;28;20238;-68
2024/03/28 02:45:43;;;;;;;31.58;22.17;;;8.80;99.90;;;;;;5007871;28;20615;-67
2024/03/28 02:48:09;;;;;;;30.33;21.95;;;8.80;99.90;;;;;;5008482;28;20212;-70
2024/03/28 02:50:35;;;;;;;29.55;22.00;;;8.70;99.90;;;;;;5010139;28;20215;-68
2024/03/28 02:53:01;;;;;;;31.95;21.75;;;8.70;99.90;;;;;;5010399;28;20180;-68
2024/03/28 02:55:26;;;;;;;30.25;23.00;;;8.70;99.90;;;;;;5011229;28;20251;-67
2024/03/28 02:57:52;;;;;;;29.92;22.48;;;8.70;99.90;;;;;;5009749;28;20648;-66
2024/03/28 03:00:18;;;;;;;33.47;22.95;;;8.70;99.90;;;;;;5008654;28;20744;-68
2024/03/28 03:02:43;;;;;;;32.53;22.83;;;8.70;99.90;;;;;;5011066;28;20279;-68
2024/03/28 03:05:10;;;;;;;30.83;21.85;;;8.70;99.90;;;;;;5008214;28;20195;-66
2024/03/28 03:07:36;;;;;;;32.75;23.33;;;8.60;99.90;;;;;;5007750;28;20199;-69
2024/03/28 03:10:01;;;;;;;35.60;24.35;;;8.70;99.90;;;;;;5009700;28;20177;-67
2024/03/28 03:12:27;;;;;;;36.00;23.65;;;8.60;99.90;;;;;;5007412;28;20189;-67
2024/03/28 03:14:53;;;;;;;34.42;24.02;;;8.60;99.90;;;;;;5008204;28;20217;-66
2024/03/28 03:17:19;;;;;;;36.92;24.27;;;8.60;99.90;;;;;;5009045;28;20266;-68
2024/03/28 03:19:45;;;;;;;35.97;25.27;;;8.60;99.90;;;;;;5009056;28;20196;-66
2024/03/28 03:22:11;;;;;;;32.13;24.00;;;8.60;99.90;;;;;;5024279;28;20584;-69
2024/03/28 03:24:38;;;;;;;34.50;23.27;;;8.50;99.90;;;;;;5007487;28;20315;-69
2024/03/28 03:27:04;;;;;;;35.05;24.80;;;8.60;99.90;;;;;;5007048;28;21114;-67
2024/03/28 03:35:03;;;;;;;39.58;25.58;;;8.50;99.90;;;;;;5009829;28;20353;-67
2024/03/28 03:37:28;;;;;;;37.25;24.52;;;8.50;99.90;;;;;;5007604;28;20238;-67
2024/03/28 03:39:54;;;;;;;41.97;26.02;;;8.50;99.90;;;;;;5006254;28;20630;-67
2024/03/28 03:42:20;;;;;;;39.15;25.23;;;8.50;99.90;;;;;;5010109;28;20210;-68
2024/03/28 03:44:47;;;;;;;36.72;25.85;;;8.50;99.90;;;;;;5007016;28;20212;-68
2024/03/28 03:47:13;;;;;;;36.15;25.27;;;8.50;99.90;;;;;;5008586;28;20271;-66
2024/03/28 03:49:43;;;;;;;39.95;25.27;;;8.50;99.90;;;;;;5008310;28;20208;-68
2024/03/28 03:52:16;;;;;;;37.25;25.63;;;8.50;99.90;;;;;;5008454;28;20214;-66
2024/03/28 03:54:42;;;;;;;35.22;26.00;;;8.50;99.90;;;;;;5008339;28;20208;-67
2024/03/28 03:57:08;;;;;;;36.28;25.10;;;8.40;99.90;;;;;;5006547;28;20287;-68
2024/03/28 03:59:35;;;;;;;34.65;24.45;;;8.40;99.90;;;;;;5004466;28;20521;-66
2024/03/28 04:02:01;;;;;;;37.40;25.13;;;8.40;99.90;;;;;;5006734;28;20283;-68
2024/03/28 04:04:27;;;;;;;39.92;26.15;;;8.40;99.90;;;;;;5010636;28;20196;-65
2024/03/28 04:06:52;;;;;;;37.67;25.77;;;8.40;99.90;;;;;;5007481;28;20185;-68
2024/03/28 04:09:18;;;;;;;40.35;24.73;;;8.40;99.90;;;;;;5009736;28;20189;-68
2024/03/28 04:11:46;;;;;;;39.65;26.45;;;8.30;99.90;;;;;;5007288;28;20644;-68
2024/03/28 04:14:12;;;;;;;39.00;25.77;;;8.30;99.90;;;;;;5010528;28;20220;-68
2024/03/28 04:16:38;;;;;;;40.63;26.38;;;8.30;99.90;;;;;;5007309;28;20228;-70
2024/03/28 04:19:04;;;;;;;41.60;27.52;;;8.30;99.90;;;;;;5006772;28;20196;-68
2024/03/28 04:21:29;;;;;;;40.08;26.52;;;8.20;99.90;;;;;;5006675;28;20690;-68
2024/03/28 04:23:58;;;;;;;41.58;26.63;;;8.30;99.90;;;;;;5011031;28;20261;-68
2024/03/28 04:26:23;;;;;;;39.72;26.17;;;8.30;99.90;;;;;;5009212;28;20196;-69
2024/03/28 04:28:49;;;;;;;46.50;27.42;;;8.20;99.90;;;;;;5007617;28;20679;-69
2024/03/28 04:31:15;;;;;;;44.92;28.23;;;8.20;99.90;;;;;;5008152;28;20177;-69
2024/03/28 04:33:41;;;;;;;43.13;28.20;;;8.20;99.90;;;;;;5008740;28;20196;-69
2024/03/28 04:36:07;;;;;;;44.42;28.10;;;8.20;99.90;;;;;;5006094;28;20232;-68
2024/03/28 04:38:35;;;;;;;45.42;27.45;;;8.20;99.90;;;;;;5023741;28;20224;-67
2024/03/28 04:41:00;;;;;;;46.78;29.55;;;8.20;99.90;;;;;;5009451;28;20840;-68
2024/03/28 04:43:26;;;;;;;43.90;27.98;;;8.20;99.90;;;;;;5007876;28;20294;-68
2024/03/28 04:45:52;;;;;;;44.83;28.38;;;8.20;99.90;;;;;;5009416;28;20208;-68
2024/03/28 04:48:17;;;;;;;48.92;30.00;;;8.20;99.90;;;;;;5021895;28;21200;-68
2024/03/28 04:50:45;;;;;;;49.00;30.55;;;8.20;99.90;;;;;;5008574;28;20188;-68
2024/03/28 04:53:10;;;;;;;48.70;30.75;;;8.20;99.90;;;;;;5009736;28;20210;-68
2024/03/28 04:55:36;;;;;;;48.60;30.15;;;8.20;99.90;;;;;;5006811;28;20208;-67
2024/03/28 04:58:01;;;;;;;48.83;30.02;;;8.20;99.90;;;;;;5007020;28;20219;-70
2024/03/28 05:00:27;;;;;;;50.33;30.42;;;8.20;99.90;;;;;;5023399;28;20223;-67
2024/03/28 05:02:53;;;;;;;48.80;31.15;;;8.20;99.90;;;;;;5025216;28;20196;-66
2024/03/28 05:05:19;;;;;;;50.03;29.73;;;8.20;99.90;;;;;;5007441;28;20188;-69
2024/03/28 05:07:44;;;;;;;48.67;30.23;;;8.20;99.90;;;;;;5006642;28;20223;-65
2024/03/28 05:10:10;;;;;;;48.35;30.40;;;8.20;99.90;;;;;;5007270;28;20188;-67
2024/03/28 05:12:36;;;;;;;49.72;31.20;;;8.20;99.90;;;;;;5007192;28;20196;-66
2024/03/28 05:15:02;;;;;;;53.10;32.97;;;8.20;99.90;;;;;;5005532;28;20220;-68
2024/03/28 05:17:27;;;;;;;54.05;32.42;;;8.20;99.90;;;;;;5008641;28;20180;-69
2024/03/28 05:19:53;;;;;;;50.60;31.45;;;8.20;99.90;;;;;;5008237;28;20250;-68
2024/03/28 05:22:19;;;;;;;52.67;32.72;;;8.20;99.90;;;;;;5010799;28;20242;-67
2024/03/28 05:24:44;;;;;;;47.67;30.52;;;8.20;99.90;;;;;;5006047;28;20200;-68
2024/03/28 05:27:12;;;;;;;52.63;32.25;;;8.20;99.90;;;;;;5003871;28;20204;-69
2024/03/28 05:29:40;;;;;;;60.00;32.75;;;8.20;99.90;;;;;;5005669;28;20201;-68
2024/03/28 05:32:06;;;;;;;54.67;32.83;;;8.20;99.90;;;;;;5008318;28;20275;-68
2024/03/28 05:34:32;;;;;;;57.33;34.13;;;8.20;99.90;;;;;;5009861;28;20197;-68
2024/03/28 05:36:58;;;;;;;54.03;32.50;;;8.20;99.90;;;;;;5006419;28;20225;-66
2024/03/28 05:39:24;;;;;;;51.92;32.97;;;8.20;99.90;;;;;;5005510;28;20183;-67
2024/03/28 05:41:49;;;;;;;56.55;32.60;;;8.20;99.90;;;;;;5008385;28;20204;-68
2024/03/28 05:44:15;;;;;;;50.55;31.95;;;8.20;99.90;;;;;;5006385;28;20180;-68
2024/03/28 05:46:41;;;;;;;51.47;31.45;;;8.20;99.90;;;;;;5005752;28;20204;-67
2024/03/28 05:49:06;;;;;;;52.97;33.13;;;8.20;99.90;;;;;;5005899;28;20218;-68
2024/03/28 05:51:32;;;;;;;54.47;34.15;;;8.20;99.90;;;;;;5005589;28;20201;-68
2024/03/28 05:53:58;;;;;;;55.60;33.05;;;8.20;99.90;;;;;;5005984;28;20251;-68
2024/03/28 05:56:23;;;;;;;57.10;33.28;;;8.20;99.90;;;;;;5007288;28;20258;-67
2024/03/28 05:58:49;;;;;;;55.45;32.95;;;8.20;99.90;;;;;;5006662;28;20589;-69
2024/03/28 06:01:16;;;;;;;52.80;33.08;;;8.20;99.90;;;;;;5004868;28;20221;-68
2024/03/28 06:03:43;;;;;;;54.70;34.58;;;8.20;99.90;;;;;;5004909;28;20748;-67
2024/03/28 06:06:09;;;;;;;59.47;34.08;;;8.10;99.90;;;;;;5002637;28;20193;-68
2024/03/28 06:08:36;;;;;;;55.70;34.15;;;8.20;99.90;;;;;;5007284;28;20254;-68
2024/03/28 06:11:02;;;;;;;55.53;33.55;;;8.20;99.90;;;;;;5004640;28;20192;-68
2024/03/28 06:13:31;;;;;;;58.83;34.15;;;8.20;99.90;;;;;;5008034;28;20416;-69
2024/03/28 06:15:56;;;;;;;54.95;33.58;;;8.20;99.90;;;;;;5005927;28;20763;-68
2024/03/28 06:18:24;;;;;;;59.30;34.38;;;8.20;99.90;;;;;;5004476;28;20223;-67
2024/03/28 06:21:05;;;;;;;58.88;34.22;;;8.20;99.90;;;;;;5007385;28;20185;-67
2024/03/28 06:23:32;;;;;;;56.13;35.15;;;8.20;99.90;;;;;;5006791;28;20536;-66
2024/03/28 06:26:04;;;;;;;53.20;32.92;;;8.30;99.90;;;;;;5021367;28;20197;-68
2024/03/28 06:28:31;;;;;;;53.83;33.58;;;8.30;99.90;;;;;;5005405;28;20204;-68
2024/03/28 06:30:59;;;;;;;55.58;32.78;;;8.30;99.90;;;;;;5004223;28;21616;-68
2024/03/28 06:33:25;;;;;;;55.75;32.22;;;8.30;99.90;;;;;;5007325;28;20196;-69
2024/03/28 06:35:51;;;;;;;56.08;32.75;;;8.40;99.90;;;;;;5005696;28;20861;-67
2024/03/28 06:38:17;;;;;;;54.70;31.08;;;8.40;99.90;;;;;;5007714;28;20278;-69
2024/03/28 06:40:44;;;;;;;52.47;32.35;;;8.40;99.90;;;;;;5004528;28;20216;-69
2024/03/28 06:43:10;;;;;;;58.42;33.88;;;8.50;99.90;;;;;;5009619;28;20188;-67
2024/03/28 06:45:36;;;;;;;58.38;33.22;;;8.50;99.90;;;;;;5010279;28;20557;-67
2024/03/28 06:48:02;;;;;;;52.92;32.28;;;8.50;99.90;;;;;;5010245;28;20291;-65
2024/03/28 06:50:27;;;;;;;55.10;33.40;;;8.50;99.90;;;;;;5009023;28;20192;-66
2024/03/28 06:52:54;;;;;;;57.25;33.78;;;8.50;99.90;;;;;;5010094;28;20269;-67
2024/03/28 06:55:20;;;;;;;52.72;33.03;;;8.60;99.90;;;;;;5007556;28;20203;-65
2024/03/28 06:57:45;;;;;;;54.15;32.10;;;8.70;99.90;;;;;;5009830;28;20227;-67
2024/03/28 07:00:12;;;;;;;51.83;32.88;;;8.70;99.90;;;;;;5009998;28;20319;-67
2024/03/28 07:02:38;;;;;;;57.95;33.45;;;8.80;99.90;;;;;;5019182;28;20570;-68
2024/03/28 07:05:04;;;;;;;53.00;33.05;;;8.80;99.90;;;;;;5011570;28;20192;-67
2024/03/28 07:07:30;;;;;;;55.60;31.67;;;8.80;99.90;;;;;;5012112;28;20188;-68
2024/03/28 07:09:57;;;;;;;53.05;32.00;;;8.90;99.90;;;;;;5010046;28;20675;-67
2024/03/28 07:12:23;;;;;;;58.67;31.98;;;8.90;99.90;;;;;;5008291;28;20192;-67
2024/03/28 07:14:49;;;;;;;58.28;32.72;;;8.90;99.90;;;;;;5009375;28;20602;-68
2024/03/28 07:17:15;;;;;;;56.20;31.30;;;9.00;99.90;;;;;;5012138;28;20199;-69
2024/03/28 07:19:41;;;;;;;56.33;31.13;;;9.10;99.90;;;;;;5008811;28;20257;-67
2024/03/28 07:22:08;;;;;;;51.90;31.15;;;9.10;99.90;;;;;;5008288;28;20197;-67
2024/03/28 07:24:35;;;;;;;52.88;31.17;;;9.20;99.90;;;;;;5009983;28;20639;-69
2024/03/28 07:27:01;;;;;;;52.92;32.00;;;9.30;99.90;;;;;;5008708;28;20223;-70
2024/03/28 07:29:28;;;;;;;53.13;32.85;;;9.30;99.90;;;;;;5009914;28;20192;-67
2024/03/28 07:31:53;;;;;;;49.97;31.17;;;9.40;99.90;;;;;;5009058;28;20243;-66
2024/03/28 07:34:19;;;;;;;57.50;32.53;;;9.40;99.90;;;;;;5010447;28;21332;-67
2024/03/28 07:36:45;;;;;;;48.80;28.85;;;9.50;99.90;;;;;;5011796;28;20311;-66
2024/03/28 07:39:13;;;;;;;48.45;30.50;;;9.60;99.90;;;;;;5011802;28;20303;-68
2024/03/28 07:41:40;;;;;;;50.63;31.05;;;9.60;99.90;;;;;;5007386;28;20196;-67
2024/03/28 07:44:05;;;;;;;48.58;30.38;;;9.70;99.90;;;;;;5008427;28;20215;-68
2024/03/28 07:46:31;;;;;;;49.03;29.27;;;9.70;99.90;;;;;;5008147;28;20200;-68
2024/03/28 07:48:57;;;;;;;49.65;29.92;;;9.80;99.90;;;;;;5008106;28;20194;-68
2024/03/28 07:51:22;;;;;;;48.90;29.67;;;9.80;99.90;;;;;;5006984;28;20214;-68
2024/03/28 07:53:48;;;;;;;47.60;29.50;;;9.80;99.90;;;;;;5022415;28;20291;-68
2024/03/28 07:56:14;;;;;;;54.08;30.85;;;9.90;99.90;;;;;;5012564;28;20204;-66
2024/03/28 07:58:39;;;;;;;52.10;30.98;;;10.00;99.90;;;;;;5008310;28;20199;-68
2024/03/28 08:01:09;;;;;;;47.92;29.67;;;10.00;99.90;;;;;;5008492;28;20188;-68
2024/03/28 08:03:35;;;;;;;49.42;29.77;;;10.10;99.90;;;;;;5009064;28;20193;-70
2024/03/28 08:06:05;;;;;;;47.72;28.80;;;10.20;99.90;;;;;;4988569;28;20193;-66
2024/03/28 08:08:35;;;;;;;49.78;30.13;;;10.30;99.90;;;;;;5027014;28;20196;-69
2024/03/28 08:11:01;;;;;;;44.78;28.45;;;10.40;99.90;;;;;;5008302;28;20291;-68
2024/03/28 08:13:27;;;;;;;47.78;29.35;;;10.40;99.90;;;;;;5008640;28;20704;-67
2024/03/28 08:15:54;;;;;;;48.22;29.95;;;10.50;99.90;;;;;;5007426;28;20227;-68
2024/03/28 08:18:20;;;;;;;47.70;28.35;;;10.50;99.90;;;;;;5008928;28;20200;-68
2024/03/28 08:20:46;;;;;;;45.17;27.15;;;10.60;99.90;;;;;;5008981;28;20196;-68
2024/03/28 08:23:12;;;;;;;44.10;26.98;;;10.60;99.90;;;;;;5010349;28;20191;-69
2024/03/28 08:25:38;;;;;;;42.72;27.50;;;10.70;99.90;;;;;;5007408;28;20278;-68
2024/03/28 08:28:07;;;;;;;42.00;28.30;;;10.70;99.90;;;;;;5007762;28;20236;-67
2024/03/28 08:30:33;;;;;;;39.97;25.98;;;10.70;99.90;;;;;;5005853;28;20272;-68
2024/03/28 08:32:59;;;;;;;40.13;25.67;;;10.80;99.90;;;;;;5023961;28;20223;-68
2024/03/28 08:35:25;;;;;;;41.53;26.80;;;10.80;99.90;;;;;;5010909;28;21314;-68
2024/03/28 08:37:52;;;;;;;42.28;26.67;;;10.90;99.90;;;;;;5005885;28;20219;-67
2024/03/28 08:40:18;;;;;;;40.63;25.80;;;11.00;99.90;;;;;;5005345;28;20215;-67
2024/03/28 08:42:44;;;;;;;37.40;24.75;;;11.00;99.90;;;;;;5006363;28;20263;-67
2024/03/28 08:45:13;;;;;;;44.42;24.73;;;11.00;99.90;;;;;;5008109;28;20192;-67
2024/03/28 08:47:40;;;;;;;34.55;23.98;;;11.10;99.90;;;;;;5004568;28;20234;-69
2024/03/28 08:50:07;;;;;;;39.22;23.02;;;11.20;99.90;;;;;;5007427;28;20195;-69
2024/03/28 08:52:33;;;;;;;38.83;23.67;;;11.20;99.90;;;;;;5005228;28;20237;-67
2024/03/28 08:54:59;;;;;;;35.83;22.92;;;11.30;99.90;;;;;;5006143;28;20200;-68
2024/03/28 08:57:27;;;;;;;36.67;23.13;;;11.40;99.90;;;;;;5008060;28;20647;-67
2024/03/28 08:59:54;;;;;;;36.75;22.27;;;11.40;99.90;;;;;;5007266;28;20656;-67
2024/03/28 09:02:20;;;;;;;38.00;21.70;;;11.50;99.90;;;;;;5006642;28;20184;-67
2024/03/28 09:04:47;;;;;;;35.72;22.80;;;11.50;99.90;;;;;;5007829;28;20242;-67
2024/03/28 09:07:16;;;;;;;32.88;19.40;;;11.60;99.90;;;;;;5007696;28;20204;-67
2024/03/28 09:09:42;;;;;;;31.88;18.88;;;11.80;99.90;;;;;;5005304;28;20196;-70
2024/03/28 09:12:11;;;;;;;34.33;17.60;;;11.80;99.90;;;;;;5006020;28;20199;-67
2024/03/28 09:14:38;;;;;;;29.35;18.27;;;11.90;99.90;;;;;;5005508;28;20215;-66
2024/03/28 09:17:04;;;;;;;39.95;20.08;;;11.90;99.90;;;;;;5021565;28;20232;-70
2024/03/28 09:19:30;;;;;;;28.23;17.88;;;12.10;99.90;;;;;;5013003;28;20788;-68
2024/03/28 09:21:56;;;;;;;27.10;18.33;;;12.20;99.90;;;;;;5009801;28;20195;-68
2024/03/28 09:24:21;;;;;;;31.63;19.05;;;12.30;99.90;;;;;;5004549;28;20239;-67
2024/03/28 09:26:48;;;;;;;28.85;18.98;;;12.40;99.90;;;;;;5007790;28;20204;-67
2024/03/28 09:29:19;;;;;;;29.88;19.23;;;12.50;99.90;;;;;;5010912;28;20213;-67
2024/03/28 09:31:49;;;;;;;26.92;18.27;;;12.50;99.90;;;;;;5008201;28;20196;-67
2024/03/28 09:34:15;;;;;;;29.17;18.33;;;12.60;99.90;;;;;;5008769;28;20207;-68
2024/03/28 09:36:41;;;;;;;27.10;17.25;;;12.70;99.90;;;;;;5020196;28;20781;-68
2024/03/28 09:39:07;;;;;;;28.92;16.40;;;12.80;99.90;;;;;;5004574;28;20242;-69
2024/03/28 09:41:34;;;;;;;25.00;16.83;;;12.90;99.90;;;;;;5006587;28;20189;-67
2024/03/28 09:44:04;;;;;;;24.80;17.58;;;13.10;99.90;;;;;;5007799;28;20197;-67
2024/03/28 09:46:30;;;;;;;23.02;16.38;;;13.20;99.90;;;;;;5005935;28;20192;-68
2024/03/28 09:49:00;;;;;;;23.60;14.32;;;13.30;99.90;;;;;;5006760;28;20188;-69
2024/03/28 09:51:27;;;;;;;23.70;13.73;;;13.30;99.90;;;;;;5005517;28;20254;-68
2024/03/28 09:53:54;;;;;;;18.67;12.63;;;13.40;99.90;;;;;;5005363;28;20246;-67
2024/03/28 09:56:20;;;;;;;20.13;12.02;;;13.40;99.90;;;;;;5004827;28;20263;-67
2024/03/28 09:58:46;;;;;;;17.30;11.75;;;13.40;99.90;;;;;;5004651;28;20185;-67
2024/03/28 10:01:13;;;;;;;15.23;11.18;;;13.40;99.90;;;;;;5004353;28;20269;-66
2024/03/28 10:03:45;;;;;;;13.77;10.20;;;13.50;99.90;;;;;;5023416;28;20193;-68
2024/03/28 10:06:11;;;;;;;14.10;10.13;;;13.50;99.90;;;;;;5005254;28;20303;-69
2024/03/28 10:08:37;;;;;;;16.33;10.00;;;13.40;99.90;;;;;;5007036;28;20204;-69
2024/03/28 10:11:05;;;;;;;16.27;9.75;;;13.40;99.90;;;;;;5005341;28;20185;-67
2024/03/28 10:13:46;;;;;;;17.58;9.75;;;13.40;99.90;;;;;;5006063;28;20197;-67
2024/03/28 10:16:12;;;;;;;12.88;8.90;;;13.30;99.90;;;;;;5008544;28;20543;-68
2024/03/28 10:18:39;;;;;;;12.07;8.15;;;13.30;99.90;;;;;;5010272;28;20659;-67
2024/03/28 10:21:06;;;;;;;11.32;8.13;;;13.30;99.90;;;;;;5010402;28;20836;-66
2024/03/28 10:23:32;;;;;;;11.13;8.38;;;13.40;99.90;;;;;;5010560;28;20283;-67
2024/03/28 10:26:02;;;;;;;11.95;8.23;;;13.40;99.90;;;;;;5006050;28;20275;-69
2024/03/28 10:28:29;;;;;;;15.18;9.00;;;13.50;99.90;;;;;;5013545;28;20267;-67
2024/03/28 10:30:57;;;;;;;16.00;9.00;;;13.50;99.90;;;;;;5008202;28;20250;-70
2024/03/28 10:33:23;;;;;;;10.95;8.70;;;13.60;99.90;;;;;;5009294;28;20189;-68
2024/03/28 10:35:57;;;;;;;12.68;8.52;;;13.70;99.90;;;;;;5011917;28;20242;-67
2024/03/28 10:38:23;;;;;;;10.95;7.82;;;13.70;99.90;;;;;;5012513;28;20679;-68
2024/03/28 10:40:50;;;;;;;13.05;9.02;;;13.70;99.90;;;;;;5008671;28;20595;-69
2024/03/28 10:43:17;;;;;;;10.35;7.53;;;13.60;99.90;;;;;;5011006;28;20187;-68
2024/03/28 10:45:45;;;;;;;11.40;8.18;;;13.70;99.90;;;;;;5010556;28;20276;-67
2024/03/28 10:48:15;;;;;;;14.05;7.30;;;13.70;99.90;;;;;;5009379;28;20197;-68
2024/03/28 10:51:06;;;;;;;12.57;6.85;;;13.70;99.90;;;;;;5012791;28;20203;-69
2024/03/28 10:53:35;;;;;;;8.18;6.18;;;13.80;99.90;;;;;;5007131;28;20207;-67
2024/03/28 10:56:20;;;;;;;8.70;5.72;;;13.90;99.90;;;;;;5011302;28;20809;-67
2024/03/28 10:58:48;;;;;;;7.15;5.40;;;14.00;99.90;;;;;;5008319;28;20181;-69
2024/03/28 11:01:18;;;;;;;8.73;6.10;;;14.10;99.90;;;;;;5007559;28;20267;-67
2024/03/28 11:03:45;;;;;;;8.60;6.03;;;14.20;99.90;;;;;;5006363;28;20196;-67
2024/03/28 11:06:11;;;;;;;8.98;5.70;;;14.30;99.90;;;;;;5006177;28;20271;-68
2024/03/28 11:08:38;;;;;;;7.53;5.70;;;14.30;99.90;;;;;;5026881;28;20203;-68
2024/03/28 11:11:05;;;;;;;5.40;4.75;;;14.40;99.90;;;;;;5013567;28;20647;-67
2024/03/28 11:13:32;;;;;;;5.43;4.20;;;14.40;99.90;;;;;;5006246;28;20811;-66
2024/03/28 11:16:02;;;;;;;8.68;4.75;;;14.40;99.90;;;;;;5011388;28;20248;-68
2024/03/28 11:18:28;;;;;;;4.93;3.90;;;14.30;99.90;;;;;;5020545;28;20188;-67
2024/03/28 11:20:54;;;;;;;6.43;3.75;;;14.30;99.90;;;;;;5014247;28;20636;-67
2024/03/28 11:23:20;;;;;;;6.97;4.22;;;14.20;99.90;;;;;;5008062;28;20195;-68
2024/03/28 11:25:47;;;;;;;5.63;3.85;;;14.20;99.90;;;;;;5006923;28;20209;-68
2024/03/28 11:28:14;;;;;;;5.70;4.28;;;14.00;99.90;;;;;;5013056;28;20207;-68
2024/03/28 11:30:53;;;;;;;5.25;3.97;;;13.90;99.90;;;;;;5012315;28;20196;-67
2024/03/28 11:33:31;;;;;;;7.68;4.28;;;13.70;99.90;;;;;;5009607;28;20306;-67
2024/03/28 11:36:07;;;;;;;6.38;4.70;;;13.50;99.90;;;;;;5011668;28;20228;-67
2024/03/28 11:38:34;;;;;;;6.55;4.43;;;13.30;99.90;;;;;;5009608;28;20207;-67
2024/03/28 11:41:00;;;;;;;6.97;4.82;;;13.10;99.90;;;;;;5011265;28;20189;-69
2024/03/28 11:43:26;;;;;;;6.30;5.05;;;13.00;99.90;;;;;;5008145;28;20197;-68
2024/03/28 11:45:53;;;;;;;10.30;5.43;;;12.80;99.90;;;;;;5006428;28;20238;-67
2024/03/28 11:48:25;;;;;;;3.90;3.03;;;12.70;99.90;;;;;;5005451;28;20766;-69
2024/03/28 11:50:53;;;;;;;4.18;2.28;;;12.50;99.90;;;;;;5011991;28;20184;-67
2024/03/28 11:53:19;;;;;;;2.75;2.08;;;12.10;99.90;;;;;;5005533;28;20264;-70
2024/03/28 11:55:48;;;;;;;2.70;2.10;;;11.80;99.90;;;;;;5022764;28;20208;-67
2024/03/28 11:58:15;;;;;;;2.67;2.10;;;11.50;99.90;;;;;;5008337;28;20256;-67
2024/03/28 12:00:41;;;;;;;4.13;2.50;;;11.20;99.90;;;;;;5021095;28;21139;-68
2024/03/28 12:03:06;;;;;;;2.42;2.20;;;10.90;99.90;;;;;;5011219;28;20195;-70
2024/03/28 12:05:33;;;;;;;3.42;2.70;;;10.70;99.90;;;;;;5006456;28;20252;-66
2024/03/28 12:07:59;;;;;;;3.92;2.70;;;10.60;99.90;;;;;;5007802;28;20291;-68
2024/03/28 12:10:25;;;;;;;3.33;3.03;;;10.40;99.90;;;;;;5005954;28;20192;-68
2024/03/28 12:12:51;;;;;;;3.88;2.90;;;10.40;99.90;;;;;;5006245;28;20239;-68
2024/03/28 12:15:17;;;;;;;2.95;2.38;;;10.30;99.90;;;;;;5026989;28;20244;-68
2024/03/28 12:17:43;;;;;;;3.50;2.92;;;10.10;99.90;;;;;;5006801;28;20196;-67
2024/03/28 12:20:10;;;;;;;5.63;3.22;;;9.90;99.90;;;;;;5005962;28;20400;-69
2024/03/28 12:22:37;;;;;;;4.32;3.05;;;9.80;99.90;;;;;;5006403;28;20189;-67
2024/03/28 12:25:10;;;;;;;3.63;2.65;;;9.70;99.90;;;;;;5006817;28;20259;-67
2024/03/28 12:27:37;;;;;;;4.72;2.70;;;9.70;99.90;;;;;;5008754;28;20547;-68
2024/03/28 12:30:11;;;;;;;3.55;2.88;;;9.60;99.90;;;;;;5008913;28;21081;-68
2024/03/28 12:32:38;;;;;;;4.03;3.10;;;9.60;99.90;;;;;;5008002;28;20189;-68
2024/03/28 12:35:05;;;;;;;4.28;2.97;;;9.50;99.90;;;;;;5004988;28;20228;-68
2024/03/28 12:37:35;;;;;;;4.22;3.10;;;9.50;99.90;;;;;;5010553;28;20628;-68
2024/03/28 12:40:18;;;;;;;5.70;4.28;;;9.40;99.90;;;;;;5007983;28;20725;-68